Winters Aire Park Airport

CFY4 · Alberta, Canadá

História da METAR CFY4 · Winters Aire Park Airport

Abaixo você vê METARs dos últimos dias. Selecione um ano para navegar pelos METARs mais antigos, a partir do ano 2007.

24 de junho de 2024

Hora Código Clima Temp. Visibilidade Tecto Vento METAR/SPECI
01:00
V
16 °C 15 mi 20.000 ft 290° 290° 9 - 15 kt METAR CYYC 240700Z 29009G15KT 15SM SCT098 BKN200 16/02 A2976 RMK AC3CI2 SLP063 DENSITY ALT 4800FT
00:00
V
16 °C 15 mi 18.000 ft 280° 280° 12 - 17 kt METAR CYYC 240600Z 28012G17KT 15SM BKN180 16/03 A2975 RMK AC5 SLP063 DENSITY ALT 4800FT

23 de junho de 2024

Hora Código Clima Temp. Visibilidade Tecto Vento METAR/SPECI
23:00
V
16 °C 15 mi 13.000 ft 270° 270° 14 - 21 kt METAR CYYC 240500Z 27014G21KT 15SM FEW070 BKN130 BKN170 16/04 A2973 RMK AC1AC5AC1 AC TR SLP056 DENSITY ALT 4900FT
22:00
V
17 °C 10 mi 13.000 ft 290° 290° 12 - 20 kt METAR CYYC 240400Z 29012G20KT 10SM BKN130 BKN250 17/04 A2971 RMK AC5CI1 CB TOPS SW SLP051 DENSITY ALT 5000FT
21:00
V
18 °C 10 mi 14.000 ft 280° 280° 18 - 30 kt METAR CYYC 240300Z 28018G30KT 10SM BKN140 BKN250 18/04 A2968 RMK AC5CI1 CI TR VIRGA N-E / CB TOPS S-W SLP042 DENSITY ALT 5100FT
20:37
V
19 °C 6 mi 13.000 ft 280° 280° 28 - 35 kt METAR CYYC 240237Z 28028G35KT 6SM HZ BKN130 19/04 A2964 RMK AC6 SLP030 DENSITY ALT 5300FT
20:16
V
19 °C 10 mi 13.000 ft 280° 280° 19 - 34 kt METAR CYYC 240216Z 28019G34KT 10SM BKN130 19/04 A2963 RMK AC6 VIRGA NW - N / CVCTV CLD EMBD SLP029 DENSITY ALT 5300FT
20:00
V
19 °C 6 mi 12.000 ft 280° 280° 23 - 39 kt METAR CYYC 240200Z 28023G39KT 6SM HZ BKN120 19/04 A2964 RMK AC5 VIRGA NW / CVCTV CLD EMBD SLP031 DENSITY ALT 5300FT
19:45
V
20 °C 6 mi 12.000 ft 280° 280° 30 - 43 kt METAR CYYC 240145Z 28030G43KT 6SM HZ BKN120 20/03 A2963 RMK AC6 SLP028 DENSITY ALT 5400FT
19:00
V
22 °C 15 mi - 310° 310° 18 - 28 kt METAR CYYC 240100Z 31018G28KT 15SM FEW080TCU FEW150 SCT230 22/03 A2962 RMK TCU1AC1CI1 CI TR ACSLASOCTD SLP024 DENSITY ALT 5700FT
18:00
V
25 °C 15 mi - 300° 300° 20 - 28 kt METAR CYYC 240000Z 30020G28KT 15SM SCT090TCU SCT250 25/03 A2959 RMK TCU3CI1 CI TR SLP012 DENSITY ALT 6000FT
17:00
V
25 °C 15 mi - Var Var 2 kt METAR CYYC 232300Z VRB02KT 15SM SCT110TCU 25/04 A2958 RMK TCU4 SLP008 DENSITY ALT 6000FT
16:00
V
26 °C 15 mi - 330° 330° 3 kt METAR CYYC 232200Z 33003KT 280V070 15SM FEW110TCU 26/09 A2959 RMK TCU2 CB TOPS NW AND N SLP009 DENSITY ALT 6100FT
15:00
V
26 °C 15 mi - 020° 020° 14 - 20 kt METAR CYYC 232100Z 02014G20KT 15SM FEW120TCU FEW250 26/08 A2960 RMK TCU1CI1 CI TR SLP013 DENSITY ALT 6100FT
14:00
V
27 °C 15 mi - 280° 280° 13 - 20 kt METAR CYYC 232000Z 28013G20KT 250V320 15SM SCT100TCU 27/02 A2960 RMK TCU3 SLP008 DENSITY ALT 6200FT
13:00
V
27 °C 15 mi - 130° 130° 6 kt METAR CYYC 231900Z 13006KT 15SM SCT090TCU 27/06 A2961 RMK TCU3 SLP012 DENSITY ALT 6100FT
12:00
V
25 °C 40 mi - Var Var 5 kt METAR CYYC 231800Z VRB05KT 40SM FEW120 25/07 A2963 RMK AC1 SLP017 DENSITY ALT 6000FT
11:00
V
24 °C 40 mi - Var Var 2 kt METAR CYYC 231700Z VRB02KT 40SM FEW120 24/07 A2966 RMK AC1 SLP028 DENSITY ALT 5800FT
10:00
V
22 °C 40 mi - 360° 360° 0 kt METAR CYYC 231600Z 00000KT 40SM FEW120 22/07 A2966 RMK AC1 AC TR SLP032 DENSITY ALT 5600FT
09:00
V
20 °C 40 mi - Var Var 2 kt METAR CYYC 231500Z VRB02KT 40SM FEW100 20/06 A2969 RMK AC1 AC TR SLP040 DENSITY ALT 5300FT
08:00
V
17 °C 40 mi - 320° 320° 3 kt METAR CYYC 231400Z 32003KT 40SM FEW050 17/08 A2970 RMK SC1 SC TR SLP048 DENSITY ALT 4900FT
07:00
V
14 °C 40 mi - 360° 360° 0 kt METAR CYYC 231300Z 00000KT 40SM FEW024TCU FEW150 14/08 A2971 RMK TCU1AC1 TCU TR AC TR TCU SW - NW SLP053 DENSITY ALT 4700FT
06:00
V
13 °C 40 mi - 160° 160° 3 kt METAR CYYC 231200Z 16003KT 40SM FEW110 FEW170 13/07 A2973 RMK ACC1AC1 ACC TR SLP059 DENSITY ALT 4400FT
05:00
V
13 °C 15 mi - 220° 220° 3 kt METAR CYYC 231100Z 22003KT 15SM FEW180 13/08 A2973 RMK AC1 AC TR VIRGA E SLP060 DENSITY ALT 4400FT
04:00
V
16 °C 15 mi - 240° 240° 6 kt METAR CYYC 231000Z 24006KT 15SM FEW190 16/08 A2974 RMK AC1 AC TR SLP059 DENSITY ALT 4800FT
03:00
V
14 °C 15 mi - 190° 190° 5 kt METAR CYYC 230900Z 19005KT 15SM SCT190 14/09 A2975 RMK AC3 SLP066 DENSITY ALT 4500FT
02:00
V
17 °C 15 mi 19.000 ft 220° 220° 3 kt METAR CYYC 230800Z 22003KT 15SM FEW110 BKN190 17/11 A2976 RMK AC1AC6 AC TR SLP067 DENSITY ALT 4900FT
01:00
V
17 °C 15 mi 19.000 ft 180° 180° 5 kt METAR CYYC 230700Z 18005KT 15SM FEW110 BKN190 17/11 A2978 RMK AC1AC6 SLP072 DENSITY ALT 4800FT
00:00
V
19 °C 15 mi 17.000 ft 170° 170° 9 kt METAR CYYC 230600Z 17009KT 15SM FEW110 BKN170 19/10 A2979 RMK AC2AC5 SLP076 DENSITY ALT 5100FT

22 de junho de 2024

Hora Código Clima Temp. Visibilidade Tecto Vento METAR/SPECI
23:00
V
19 °C 15 mi 12.000 ft 170° 170° 9 kt METAR CYYC 230500Z 17009KT 15SM BKN120 19/10 A2981 RMK AC7 SLP086 DENSITY ALT 5100FT
22:00
V
20 °C 15 mi 17.000 ft 170° 170° 10 - 16 kt METAR CYYC 230400Z 17010G16KT 15SM FEW120 BKN170 BKN200 20/09 A2982 RMK AC2AC3CI2 SLP091 DENSITY ALT 5200FT
21:00
V
22 °C 15 mi 11.000 ft 170° 170° 10 kt METAR CYYC 230300Z 17010KT 15SM FEW050 BKN110 BKN200 22/09 A2982 RMK SC1AC5CI2 SC TR SLP094 DENSITY ALT 5400FT
20:00
V
23 °C 20 mi 24.000 ft 180° 180° 11 - 16 kt METAR CYYC 230200Z 18011G16KT 20SM FEW069 SCT110 BKN240 23/09 A2983 RMK CU1AC3CC2 HZ SLP098 DENSITY ALT 5500FT
19:00
V
25 °C 20 mi 10.000 ft 190° 190° 15 kt METAR CYYC 230100Z 19015KT 20SM BKN100 BKN250 25/07 A2983 RMK AC5CC2 SLP101 DENSITY ALT 5700FT
18:00
V
25 °C 20 mi 21.000 ft 190° 190° 12 - 17 kt METAR CYYC 230000Z 19012G17KT 20SM SCT100 BKN210 25/05 A2984 RMK AC4CC1 AC LENT SLP107 DENSITY ALT 5700FT
17:00
V
26 °C 20 mi 9.700 ft 160° 160° 13 - 24 kt METAR CYYC 222300Z 16013G24KT 20SM BKN097 BKN210 26/03 A2986 RMK AC5CC2 SLP111 DENSITY ALT 5800FT
16:00
V
25 °C 20 mi - 150° 150° 11 - 19 kt METAR CYYC 222200Z 15011G19KT 090V170 20SM FEW150 SCT240 25/04 A2988 RMK AC1CC3 SLP117 DENSITY ALT 5700FT
15:00
V
25 °C 20 mi 25.000 ft 100° 100° 7 - 15 kt METAR CYYC 222100Z 10007G15KT 070V140 20SM SCT110 BKN250 25/05 A2989 RMK AC4CI1 TCU TOPS NE SLP119 DENSITY ALT 5600FT
14:00
V
25 °C 30 mi - Var Var 6 kt METAR CYYC 222000Z VRB06KT 30SM FEW100 FEW180 SCT250 25/03 A2990 RMK AC1AC1CI1 TCU TOPS NE SLP122 DENSITY ALT 5600FT
13:00
V
24 °C 40 mi 22.000 ft 330° 330° 5 kt METAR CYYC 221900Z 33005KT 250V360 40SM FEW100 FEW180 BKN220 24/M01 A2991 RMK AC1AC1CI3 SLP126 DENSITY ALT 5600FT
12:00
V
23 °C 40 mi 19.000 ft 360° 360° 0 kt METAR CYYC 221800Z 00000KT 40SM FEW140 BKN190 BKN230 23/03 A2992 RMK AC1AC4CI2 SLP130 DENSITY ALT 5400FT
11:00
V
21 °C 40 mi 25.000 ft 220° 220° 3 kt METAR CYYC 221700Z 22003KT 150V320 40SM FEW140 BKN250 21/06 A2994 RMK AC1CI6 AC TR SLP137 DENSITY ALT 5200FT
10:00
V
18 °C 40 mi 25.000 ft Var Var 2 kt METAR CYYC 221600Z VRB02KT 40SM FEW140 BKN250 18/06 A2995 RMK AC1CI6 AC TR SLP146 DENSITY ALT 4800FT
09:00
V
15 °C 40 mi - Var Var 2 kt METAR CYYC 221500Z VRB02KT 40SM FEW250 15/06 A2995 RMK CI1 SLP145 DENSITY ALT 4500FT
08:00
V
13 °C 40 mi - 180° 180° 4 kt METAR CYYC 221400Z 18004KT 40SM FEW250 13/06 A2995 RMK CI1 CI TR SLP143 DENSITY ALT 4200FT
07:00
V
10 °C 40 mi - 110° 110° 3 kt METAR CYYC 221300Z 11003KT 100V160 40SM SKC 10/06 A2995 RMK SLP147 DENSITY ALT 3900FT
06:00
V
8 °C 40 mi - 360° 360° 0 kt METAR CYYC 221200Z 00000KT 40SM FEW180 08/04 A2995 RMK AC1 AC TR SLP149
05:00
V
8 °C 20 mi - Var Var 2 kt METAR CYYC 221100Z VRB02KT 20SM FEW100 08/04 A2995 RMK AC1 AC TR SLP148
04:00
V
9 °C 15 mi - Var Var 2 kt METAR CYYC 221000Z VRB02KT 15SM SKC 09/05 A2996 RMK SLP152
03:00
V
10 °C 15 mi - 360° 360° 0 kt METAR CYYC 220900Z 00000KT 15SM FEW090 10/05 A2997 RMK AC1 AC TR SLP155
02:00
V
12 °C 15 mi - 230° 230° 5 kt METAR CYYC 220800Z 23005KT 15SM SKC 12/05 A2998 RMK SLP156 DENSITY ALT 4000FT
01:00
V
12 °C 15 mi - 200° 200° 5 kt METAR CYYC 220700Z 20005KT 15SM SKC 12/06 A2999 RMK SLP162 DENSITY ALT 4000FT
00:00
V
12 °C 10 mi 24.000 ft 170° 170° 5 kt METAR CYYC 220600Z 17005KT 110V200 10SM SCT130 BKN240 12/06 A3001 RMK AC3CI2 SLP168 DENSITY ALT 4000FT
Relatar uma mudança